Boscombe Down, United Kingdom
Current Conditions -  °F | °C
As of 7:50 AM on Thursday 29 Jan 2015 (Local Time) from EGDM Reporting Station
Scattered Clouds Scattered Clouds  
Wind Chill: 24°   Ceiling: Unl
Heat Index: 34°   Visibility: 6mi
Dew Point: 34°   Wind: 15mph
Humidity: 100%   Direction: 230°SW
Pressure: 29.23"   Gusts: NA
Location:  51.17°N, 1.75°W
Report Text: EGDM 290750Z 23013KT 9999 FEW010 SCT050 01/01 Q0990 BLU NOSIG
Loading
Personal Weather Stations






























Interactive Weather Map New forecast layout! Learn more

10-Day Weather Forecast

Advertisements
Track Severe Weather on mobile